Time;durP1;ratioP1;P1;durP2;ratioP2;P2;SDS_P1;SDS_P2;PMS_P1;PMS_P2;Temp;Humidity;BMP_temperature;BMP_pressure;BME280_temperature;BME280_humidity;BME280_pressure;Samples;Min_cycle;Max_cycle;Signal;HPM_P1;HPM_P2
2022/10/07 00:00:58;;;;;;;16.10;14.57;;;8.20;99.90;;;;;;5102593;28;20862;-71
2022/10/07 00:03:27;;;;;;;15.57;14.33;;;8.10;99.90;;;;;;5095149;28;20459;-67
2022/10/07 00:06:02;;;;;;;16.23;14.33;;;8.10;99.90;;;;;;5099445;28;20469;-67
2022/10/07 00:08:29;;;;;;;23.00;14.77;;;8.00;99.90;;;;;;5096915;28;20573;-70
2022/10/07 00:10:57;;;;;;;15.83;14.43;;;8.00;99.90;;;;;;5094831;28;20998;-68
2022/10/07 00:13:25;;;;;;;27.90;15.00;;;7.90;99.90;;;;;;5092669;28;20522;-69
2022/10/07 00:15:51;;;;;;;18.80;14.50;;;7.90;99.90;;;;;;5097819;28;20472;-67
2022/10/07 00:18:20;;;;;;;15.53;13.47;;;8.00;99.90;;;;;;5090454;28;20486;-67
2022/10/07 00:20:46;;;;;;;13.83;12.53;;;8.10;99.90;;;;;;5094765;28;20481;-68
2022/10/07 00:23:13;;;;;;;14.50;13.10;;;8.10;99.90;;;;;;5099971;28;20544;-67
2022/10/07 00:25:41;;;;;;;14.03;12.83;;;8.10;99.90;;;;;;5097679;28;20455;-67
2022/10/07 00:28:07;;;;;;;13.77;12.47;;;8.30;99.90;;;;;;5098753;28;20988;-67
2022/10/07 00:30:35;;;;;;;13.70;12.50;;;8.40;99.90;;;;;;5095108;28;20465;-67
2022/10/07 00:33:01;;;;;;;17.67;12.83;;;8.40;99.90;;;;;;5092935;28;20470;-67
2022/10/07 00:35:29;;;;;;;13.57;12.30;;;8.40;99.90;;;;;;5093787;28;20892;-67
2022/10/07 00:37:56;;;;;;;19.33;12.70;;;8.50;99.90;;;;;;5094050;28;20492;-71
2022/10/07 00:40:23;;;;;;;13.97;12.43;;;8.50;99.90;;;;;;5095882;28;20969;-70
2022/10/07 00:42:51;;;;;;;13.23;12.13;;;8.60;99.90;;;;;;5099609;28;20458;-69
2022/10/07 00:45:20;;;;;;;17.70;12.50;;;8.50;99.90;;;;;;5092703;28;21042;-68
2022/10/07 00:47:50;;;;;;;14.07;12.63;;;8.60;99.90;;;;;;5095007;28;20922;-67
2022/10/07 00:50:20;;;;;;;14.47;12.77;;;8.60;99.90;;;;;;5092091;28;20548;-67
2022/10/07 00:52:52;;;;;;;14.80;12.80;;;8.60;99.90;;;;;;5092892;28;20467;-67
2022/10/07 00:55:23;;;;;;;15.47;13.07;;;8.60;99.90;;;;;;5092541;28;20464;-67
2022/10/07 00:57:52;;;;;;;18.13;13.83;;;8.60;99.90;;;;;;5092828;28;20484;-67
2022/10/07 01:00:20;;;;;;;14.27;12.97;;;8.60;99.90;;;;;;5100214;28;20461;-67
2022/10/07 01:02:47;;;;;;;16.80;12.97;;;8.50;99.90;;;;;;5095578;28;20892;-68
2022/10/07 01:05:14;;;;;;;14.63;13.20;;;8.40;99.90;;;;;;5096363;28;20458;-69
2022/10/07 01:07:41;;;;;;;22.77;13.07;;;8.30;99.90;;;;;;5092809;28;20877;-68
2022/10/07 01:10:14;;;;;;;17.43;14.57;;;8.30;99.90;;;;;;5092820;28;20869;-70
2022/10/07 01:12:52;;;;;;;15.00;13.40;;;8.20;99.90;;;;;;5102615;28;21053;-67
2022/10/07 01:15:27;;;;;;;19.23;14.30;;;8.20;99.90;;;;;;5098380;28;20458;-70
2022/10/07 01:18:03;;;;;;;16.73;12.90;;;8.30;99.90;;;;;;5093157;28;20495;-71
2022/10/07 01:20:34;;;;;;;15.53;13.83;;;8.30;99.90;;;;;;5096279;28;20452;-67
2022/10/07 01:23:38;;;;;;;17.17;13.20;;;8.30;99.90;;;;;;5095996;28;20841;-67
2022/10/07 01:26:48;;;;;;;19.77;13.90;;;8.30;99.90;;;;;;5058085;28;21007;-68
2022/10/07 01:29:19;;;;;;;16.60;12.83;;;8.30;99.90;;;;;;5096378;28;20950;-70
2022/10/07 01:31:49;;;;;;;20.73;13.80;;;8.30;99.90;;;;;;5092903;28;20831;-70
2022/10/07 01:34:19;;;;;;;18.60;13.90;;;8.30;99.90;;;;;;5089566;28;20804;-67
2022/10/07 01:36:50;;;;;;;20.03;14.20;;;8.30;99.90;;;;;;5095595;28;20499;-67
2022/10/07 01:39:22;;;;;;;15.27;13.43;;;8.20;99.90;;;;;;5097621;28;20465;-67
2022/10/07 01:41:51;;;;;;;24.33;15.13;;;8.30;99.90;;;;;;5099302;28;20865;-67
2022/10/07 01:44:19;;;;;;;20.80;13.80;;;8.20;99.90;;;;;;5092049;28;20555;-67
2022/10/07 01:46:46;;;;;;;23.70;13.67;;;8.10;99.90;;;;;;5094972;28;20479;-67
2022/10/07 01:49:13;;;;;;;14.20;12.77;;;8.10;99.90;;;;;;5094172;28;20495;-69
2022/10/07 01:51:42;;;;;;;21.43;13.13;;;8.10;99.90;;;;;;5097528;28;20460;-67
2022/10/07 01:54:22;;;;;;;24.40;13.87;;;8.10;99.90;;;;;;5096084;28;20474;-71
2022/10/07 01:57:09;;;;;;;21.00;13.43;;;8.20;99.90;;;;;;5090983;28;20725;-70
2022/10/07 02:00:04;;;;;;;29.87;15.03;;;8.10;99.90;;;;;;5094560;28;20458;-69
2022/10/07 02:02:43;;;;;;;14.60;13.00;;;8.10;99.90;;;;;;5093107;28;21046;-68
2022/10/07 02:05:14;;;;;;;21.10;13.80;;;8.10;99.90;;;;;;5091580;28;20477;-67
2022/10/07 02:07:52;;;;;;;21.73;13.50;;;7.90;99.90;;;;;;5095666;28;20465;-69
2022/10/07 02:10:26;;;;;;;15.47;13.87;;;7.80;99.90;;;;;;5100689;28;20445;-67
2022/10/07 02:12:59;;;;;;;13.40;12.00;;;7.70;99.90;;;;;;5096849;28;20465;-69
2022/10/07 02:15:31;;;;;;;13.37;12.03;;;7.60;99.90;;;;;;5094870;28;20960;-71
2022/10/07 02:18:04;;;;;;;14.37;12.93;;;7.50;99.90;;;;;;5093661;28;21042;-67
2022/10/07 02:20:34;;;;;;;14.23;13.00;;;7.40;99.90;;;;;;5094432;28;20570;-70
2022/10/07 02:23:04;;;;;;;14.00;12.80;;;7.40;99.90;;;;;;5092433;28;20457;-68
2022/10/07 02:25:36;;;;;;;14.00;12.60;;;7.40;99.90;;;;;;5096611;28;20469;-68
2022/10/07 02:28:07;;;;;;;14.33;12.73;;;7.20;99.90;;;;;;5095743;28;20492;-71
2022/10/07 02:30:36;;;;;;;13.60;12.33;;;7.10;99.90;;;;;;5094747;28;20468;-69
2022/10/07 02:33:06;;;;;;;14.27;13.13;;;7.00;99.90;;;;;;5092192;28;20778;-71
2022/10/07 02:35:38;;;;;;;15.00;13.00;;;6.90;99.90;;;;;;5092611;28;20557;-68
2022/10/07 02:38:10;;;;;;;17.67;13.23;;;6.80;99.90;;;;;;5097994;28;20461;-67
2022/10/07 02:40:43;;;;;;;13.93;12.93;;;6.80;99.90;;;;;;5100899;28;20444;-67
2022/10/07 02:43:15;;;;;;;21.73;13.80;;;6.70;99.90;;;;;;5096203;28;20998;-68
2022/10/07 02:45:45;;;;;;;15.07;13.53;;;6.70;99.90;;;;;;5098647;28;20476;-68
2022/10/07 02:48:19;;;;;;;14.97;14.10;;;6.60;99.90;;;;;;5092152;28;20553;-68
2022/10/07 02:50:51;;;;;;;15.10;13.80;;;6.60;99.90;;;;;;5101650;28;20460;-67
2022/10/07 02:53:20;;;;;;;19.30;14.07;;;6.50;99.90;;;;;;5095292;28;20475;-67
2022/10/07 02:55:51;;;;;;;15.47;14.10;;;6.40;99.90;;;;;;5101984;28;20460;-67
2022/10/07 02:58:24;;;;;;;15.30;14.03;;;6.40;99.90;;;;;;5093578;28;20460;-67
2022/10/07 03:00:52;;;;;;;15.60;14.20;;;6.40;99.90;;;;;;5094882;28;20457;-66
2022/10/07 03:03:19;;;;;;;16.53;14.80;;;6.40;99.90;;;;;;5095079;28;20457;-67
2022/10/07 03:05:49;;;;;;;19.10;14.73;;;6.40;99.90;;;;;;5095017;28;20529;-69
2022/10/07 03:08:16;;;;;;;17.10;13.97;;;6.40;99.90;;;;;;5098729;28;20460;-67
2022/10/07 03:10:43;;;;;;;15.57;14.07;;;6.40;99.90;;;;;;5095421;28;20468;-68
2022/10/07 03:13:10;;;;;;;16.20;14.70;;;6.30;99.90;;;;;;5102015;28;20482;-68
2022/10/07 03:15:39;;;;;;;15.40;14.20;;;6.20;99.90;;;;;;5096736;28;20465;-67
2022/10/07 03:18:24;;;;;;;17.93;15.60;;;6.20;99.90;;;;;;5102380;28;20511;-67
2022/10/07 03:20:54;;;;;;;15.93;14.40;;;6.20;99.90;;;;;;5099534;28;20470;-67
2022/10/07 03:23:23;;;;;;;15.97;14.70;;;6.10;99.90;;;;;;5096859;28;20513;-67
2022/10/07 03:25:52;;;;;;;17.10;15.57;;;6.10;99.90;;;;;;5096235;28;20458;-67
2022/10/07 03:28:20;;;;;;;18.60;15.43;;;6.10;99.90;;;;;;5094879;28;20863;-68
2022/10/07 03:30:50;;;;;;;16.40;15.10;;;6.10;99.90;;;;;;5098948;28;20537;-70
2022/10/07 03:33:18;;;;;;;16.93;14.70;;;6.10;99.90;;;;;;5095383;28;20453;-70
2022/10/07 03:35:46;;;;;;;16.67;15.07;;;6.10;99.90;;;;;;5094868;28;20452;-69
2022/10/07 03:38:13;;;;;;;23.47;15.43;;;6.00;99.90;;;;;;5093619;28;20471;-67
2022/10/07 03:40:43;;;;;;;16.00;14.73;;;5.90;99.90;;;;;;5099497;28;20468;-67
2022/10/07 03:43:10;;;;;;;17.00;15.37;;;5.90;99.90;;;;;;5095462;28;20529;-70
2022/10/07 03:45:43;;;;;;;16.03;14.90;;;5.90;99.90;;;;;;5094926;28;20461;-70
2022/10/07 03:48:11;;;;;;;17.03;14.80;;;5.90;99.90;;;;;;5097480;28;20462;-70
2022/10/07 03:50:38;;;;;;;16.20;15.13;;;5.80;99.90;;;;;;5095754;28;20540;-69
2022/10/07 03:53:05;;;;;;;17.23;15.70;;;5.80;99.90;;;;;;5096083;28;20541;-69
2022/10/07 03:55:33;;;;;;;17.10;15.40;;;5.80;99.90;;;;;;5094924;28;20454;-67
2022/10/07 03:58:00;;;;;;;17.43;16.33;;;5.80;99.90;;;;;;5095890;28;20474;-67
2022/10/07 04:00:27;;;;;;;17.50;16.10;;;5.80;99.90;;;;;;5095360;28;20560;-67
2022/10/07 04:02:54;;;;;;;17.97;16.27;;;5.80;99.90;;;;;;5092731;28;20456;-67
2022/10/07 04:05:23;;;;;;;20.53;15.90;;;5.80;99.90;;;;;;5094656;28;20458;-68
2022/10/07 04:07:50;;;;;;;17.47;15.83;;;5.80;99.90;;;;;;5090153;28;20465;-69
2022/10/07 04:10:19;;;;;;;19.57;16.87;;;5.80;99.90;;;;;;5090447;28;20489;-67
2022/10/07 04:12:48;;;;;;;34.67;17.87;;;5.80;99.90;;;;;;5089746;28;21209;-67
2022/10/07 04:15:15;;;;;;;22.47;16.60;;;5.70;99.90;;;;;;5090778;28;20501;-69
2022/10/07 04:17:42;;;;;;;17.27;16.00;;;5.80;99.90;;;;;;5087381;28;21025;-70
2022/10/07 04:20:11;;;;;;;20.57;16.00;;;5.70;99.90;;;;;;5092904;28;20469;-70
2022/10/07 04:22:39;;;;;;;21.37;17.40;;;5.60;99.90;;;;;;5090975;28;20473;-67
2022/10/07 04:27:53;;;;;;;26.47;17.13;;;5.60;99.90;;;;;;5090588;28;20939;-67
2022/10/07 04:30:20;;;;;;;32.23;17.80;;;5.70;99.90;;;;;;5091864;28;20917;-67
2022/10/07 04:32:49;;;;;;;17.80;16.00;;;5.70;99.90;;;;;;5089297;28;20514;-68
2022/10/07 04:35:16;;;;;;;21.17;16.53;;;5.60;99.90;;;;;;5094352;28;20467;-69
2022/10/07 04:37:47;;;;;;;17.63;16.23;;;5.50;99.90;;;;;;5094885;28;20473;-69
2022/10/07 04:40:14;;;;;;;23.30;17.90;;;5.50;99.90;;;;;;5096040;28;20504;-69
2022/10/07 04:45:25;;;;;;;18.10;16.40;;;5.50;99.90;;;;;;5094342;28;20465;-67
2022/10/07 04:47:52;;;;;;;20.00;18.07;;;5.60;99.90;;;;;;5091859;28;20461;-70
2022/10/07 04:50:19;;;;;;;24.63;17.60;;;5.50;99.90;;;;;;5097100;28;20487;-69
2022/10/07 04:52:47;;;;;;;33.90;20.20;;;5.50;99.90;;;;;;5095967;28;20466;-69
2022/10/07 04:55:16;;;;;;;24.20;17.47;;;5.40;99.90;;;;;;5095234;28;20876;-68
2022/10/07 04:57:43;;;;;;;36.50;18.90;;;5.50;99.90;;;;;;5091119;28;20473;-69
2022/10/07 05:00:12;;;;;;;31.93;19.43;;;5.60;99.90;;;;;;5089342;28;20563;-68
2022/10/07 05:02:39;;;;;;;21.13;17.43;;;5.60;99.90;;;;;;5090137;28;20471;-68
2022/10/07 05:05:07;;;;;;;26.73;19.40;;;5.70;99.90;;;;;;5092893;28;20511;-68
2022/10/07 05:07:34;;;;;;;39.07;19.47;;;5.70;99.90;;;;;;5095685;28;20464;-70
2022/10/07 05:10:03;;;;;;;21.23;18.17;;;5.80;99.90;;;;;;5089354;28;20507;-69
2022/10/07 05:12:30;;;;;;;35.03;16.80;;;5.90;99.90;;;;;;5095834;28;20454;-68
2022/10/07 05:14:58;;;;;;;19.83;17.07;;;5.80;99.90;;;;;;5090126;28;20469;-69
2022/10/07 05:17:25;;;;;;;18.40;16.50;;;5.70;99.90;;;;;;5091757;28;20587;-68
2022/10/07 05:19:52;;;;;;;24.70;17.47;;;5.70;99.90;;;;;;5095278;28;20459;-67
2022/10/07 05:22:18;;;;;;;41.03;18.20;;;5.70;99.90;;;;;;5094673;28;20482;-67
2022/10/07 05:24:45;;;;;;;29.47;17.07;;;5.80;99.90;;;;;;5090119;28;20857;-67
2022/10/07 05:27:15;;;;;;;25.50;18.20;;;5.90;99.90;;;;;;5091852;28;20472;-68
2022/10/07 05:29:42;;;;;;;19.10;17.40;;;5.90;99.90;;;;;;5091401;28;20506;-67
2022/10/07 05:32:09;;;;;;;22.90;18.60;;;5.80;99.90;;;;;;5090625;28;20458;-67
2022/10/07 05:34:36;;;;;;;30.43;19.70;;;5.70;99.90;;;;;;5091494;28;20460;-67
2022/10/07 05:37:03;;;;;;;40.17;18.87;;;5.70;99.90;;;;;;5092920;28;20839;-67
2022/10/07 05:39:30;;;;;;;34.17;18.40;;;5.60;99.90;;;;;;5090509;28;20867;-67
2022/10/07 05:41:57;;;;;;;33.17;19.23;;;5.70;99.90;;;;;;5093388;28;20725;-68
2022/10/07 05:44:25;;;;;;;39.67;19.60;;;5.70;99.90;;;;;;5086892;28;20464;-68
2022/10/07 05:46:52;;;;;;;41.13;18.37;;;5.70;99.90;;;;;;5088968;28;20467;-67
2022/10/07 05:49:19;;;;;;;35.27;19.17;;;5.80;99.90;;;;;;5094380;28;20583;-69
2022/10/07 05:51:46;;;;;;;26.70;18.70;;;5.80;99.90;;;;;;5088943;28;20845;-69
2022/10/07 05:54:12;;;;;;;33.60;19.03;;;5.90;99.90;;;;;;5091663;28;20461;-69
2022/10/07 05:56:39;;;;;;;29.57;18.60;;;6.00;99.90;;;;;;5089430;28;20466;-68
2022/10/07 05:59:06;;;;;;;30.27;18.63;;;6.00;99.90;;;;;;5094964;28;20457;-68
2022/10/07 06:01:34;;;;;;;31.13;19.60;;;6.20;99.90;;;;;;5088391;28;20469;-67
2022/10/07 06:04:00;;;;;;;27.23;18.07;;;6.20;99.90;;;;;;5090840;28;20467;-68
2022/10/07 06:06:28;;;;;;;32.80;19.37;;;6.20;99.90;;;;;;5091627;28;20468;-69
2022/10/07 06:13:06;;;;;;;25.50;17.97;;;6.30;99.90;;;;;;5089983;28;20466;-68
2022/10/07 06:14:27;;;;;;;33.53;17.97;;;6.30;99.90;;;;;;5090501;28;20501;-68
2022/10/07 06:16:55;;;;;;;30.47;18.30;;;6.30;99.90;;;;;;5089591;28;20474;-68
2022/10/07 06:19:22;;;;;;;23.73;17.23;;;6.30;99.90;;;;;;5091283;28;21456;-68
2022/10/07 06:21:50;;;;;;;20.27;17.30;;;6.40;99.90;;;;;;5093156;28;20499;-68
2022/10/07 06:24:17;;;;;;;30.33;19.83;;;6.50;99.90;;;;;;5097514;28;20461;-69
2022/10/07 06:26:44;;;;;;;29.10;17.60;;;6.60;99.90;;;;;;5093724;28;20469;-67
2022/10/07 06:29:11;;;;;;;45.70;17.70;;;6.70;99.90;;;;;;5092554;28;20485;-68
2022/10/07 06:31:39;;;;;;;38.20;18.07;;;6.80;99.90;;;;;;5093674;28;20599;-67
2022/10/07 06:34:07;;;;;;;23.23;17.70;;;6.90;99.90;;;;;;5092474;28;20647;-68
2022/10/07 06:36:34;;;;;;;27.40;17.93;;;6.90;99.90;;;;;;5091998;28;20454;-67
2022/10/07 06:39:01;;;;;;;25.73;18.47;;;6.90;99.90;;;;;;5088680;28;20477;-67
2022/10/07 06:41:28;;;;;;;37.10;17.43;;;6.90;99.90;;;;;;5094048;28;20989;-67
2022/10/07 06:43:56;;;;;;;28.27;18.10;;;6.90;99.90;;;;;;5093474;28;20481;-67
2022/10/07 06:46:23;;;;;;;27.37;18.23;;;7.10;99.90;;;;;;5093455;28;20654;-68
2022/10/07 06:48:50;;;;;;;34.17;17.03;;;7.20;99.90;;;;;;5090769;28;20523;-68
2022/10/07 06:51:21;;;;;;;23.60;16.70;;;7.30;99.90;;;;;;5092072;28;20513;-67
2022/10/07 06:53:52;;;;;;;34.07;19.07;;;7.40;99.90;;;;;;5092115;28;20458;-67
2022/10/07 06:56:19;;;;;;;29.83;18.17;;;7.50;99.90;;;;;;5082511;28;20578;-68
2022/10/07 06:58:48;;;;;;;38.47;18.00;;;7.60;99.90;;;;;;5086507;28;20461;-67
2022/10/07 07:01:15;;;;;;;34.63;17.20;;;7.70;99.90;;;;;;5087996;28;20475;-67
2022/10/07 07:03:42;;;;;;;25.17;16.00;;;7.80;99.90;;;;;;5087849;28;20459;-67
2022/10/07 07:06:10;;;;;;;25.40;17.10;;;7.90;99.90;;;;;;5088577;28;20906;-67
2022/10/07 07:08:40;;;;;;;23.50;16.90;;;8.00;99.90;;;;;;5089640;28;20552;-68
2022/10/07 07:11:34;;;;;;;24.27;15.57;;;8.20;99.90;;;;;;5089178;28;20612;-67
2022/10/07 07:13:57;;;;;;;20.60;15.70;;;8.30;99.90;;;;;;5089309;28;20466;-67
2022/10/07 07:16:24;;;;;;;31.50;15.80;;;8.40;99.90;;;;;;5088047;28;20954;-67
2022/10/07 07:18:52;;;;;;;26.60;16.03;;;8.60;99.90;;;;;;5089626;28;21085;-68
2022/10/07 07:21:19;;;;;;;19.37;16.40;;;8.80;99.90;;;;;;5087735;28;20465;-69
2022/10/07 07:23:47;;;;;;;36.67;17.37;;;8.90;99.90;;;;;;5087699;28;20832;-68
2022/10/07 07:26:14;;;;;;;24.80;16.10;;;9.10;99.90;;;;;;5095347;28;20481;-67
2022/10/07 07:28:41;;;;;;;31.87;17.97;;;9.20;99.90;;;;;;5091410;28;20492;-69
2022/10/07 07:31:09;;;;;;;26.90;16.80;;;9.30;99.90;;;;;;5090963;28;20905;-68
2022/10/07 07:33:37;;;;;;;21.13;16.70;;;9.40;99.90;;;;;;5092820;28;20828;-67
2022/10/07 07:36:15;;;;;;;24.50;15.53;;;9.50;99.90;;;;;;5097777;28;20456;-68
2022/10/07 07:38:42;;;;;;;17.57;15.67;;;9.60;99.90;;;;;;5095261;28;20564;-67
2022/10/07 07:41:10;;;;;;;21.57;15.10;;;9.70;99.90;;;;;;5092707;28;20457;-69
2022/10/07 07:43:38;;;;;;;25.23;14.60;;;9.90;99.90;;;;;;5095202;28;20927;-69
2022/10/07 07:46:05;;;;;;;24.63;15.47;;;9.90;99.90;;;;;;5095068;28;20693;-69
2022/10/07 07:48:32;;;;;;;19.37;14.00;;;10.10;99.90;;;;;;5096195;28;20465;-69
2022/10/07 07:51:00;;;;;;;22.07;15.07;;;10.20;99.90;;;;;;5092385;28;20856;-68
2022/10/07 07:53:27;;;;;;;24.43;15.07;;;10.40;99.90;;;;;;5096019;28;20520;-68
2022/10/07 07:55:54;;;;;;;17.67;13.87;;;10.60;99.90;;;;;;5093718;28;20469;-69
2022/10/07 07:58:24;;;;;;;15.67;13.50;;;10.70;99.90;;;;;;5096842;28;20790;-68
2022/10/07 08:00:58;;;;;;;15.20;13.00;;;10.80;99.90;;;;;;5097173;28;20457;-68
2022/10/07 08:03:26;;;;;;;17.17;12.63;;;10.90;99.90;;;;;;5089146;28;20453;-68
2022/10/07 08:05:53;;;;;;;25.83;13.67;;;11.10;99.90;;;;;;5093993;28;20608;-70
2022/10/07 08:08:21;;;;;;;20.50;12.37;;;11.20;99.90;;;;;;5092209;28;20561;-68
2022/10/07 08:10:48;;;;;;;22.90;12.53;;;11.30;99.90;;;;;;5093381;28;20496;-68
2022/10/07 08:13:15;;;;;;;24.83;13.00;;;11.40;99.90;;;;;;5099739;28;20552;-68
2022/10/07 08:15:43;;;;;;;16.43;12.33;;;11.50;99.90;;;;;;5093181;28;20486;-68
2022/10/07 08:18:10;;;;;;;39.70;16.03;;;11.70;99.90;;;;;;5088284;28;21197;-68
2022/10/07 08:20:37;;;;;;;24.07;13.97;;;11.80;99.90;;;;;;5090866;28;20510;-69
2022/10/07 08:23:04;;;;;;;25.90;13.90;;;11.90;99.90;;;;;;5094412;28;21215;-70
2022/10/07 08:25:31;;;;;;;18.33;13.90;;;12.00;99.90;;;;;;5094142;28;20474;-68
2022/10/07 08:27:58;;;;;;;17.97;12.90;;;12.10;99.90;;;;;;5093110;28;20887;-69
2022/10/07 08:30:25;;;;;;;20.93;13.33;;;12.20;99.90;;;;;;5091109;28;20573;-70
2022/10/07 08:32:54;;;;;;;14.43;12.83;;;12.40;99.90;;;;;;5095407;28;20454;-68
2022/10/07 08:35:21;;;;;;;13.43;12.23;;;12.50;99.90;;;;;;5095545;28;20461;-67
2022/10/07 08:37:48;;;;;;;19.10;13.33;;;12.60;99.90;;;;;;5095851;28;20470;-68
2022/10/07 08:40:17;;;;;;;18.37;13.90;;;12.80;99.90;;;;;;5088368;28;21059;-68
2022/10/07 08:42:46;;;;;;;15.57;14.30;;;12.90;99.90;;;;;;5085735;28;21035;-68
2022/10/07 08:45:22;;;;;;;14.80;13.23;;;13.00;99.90;;;;;;5090310;28;20544;-69
2022/10/07 08:47:51;;;;;;;16.33;12.53;;;13.10;99.90;;;;;;5093730;28;20465;-68
2022/10/07 08:50:26;;;;;;;14.77;13.17;;;13.20;99.90;;;;;;5090821;28;20766;-68
2022/10/07 08:52:58;;;;;;;20.80;14.37;;;13.20;99.90;;;;;;5090137;28;20457;-69
2022/10/07 08:55:33;;;;;;;15.47;12.87;;;13.40;99.90;;;;;;5088123;28;20450;-68
2022/10/07 08:58:15;;;;;;;15.10;13.33;;;13.50;99.90;;;;;;5094375;28;20469;-70
2022/10/07 09:00:47;;;;;;;15.13;14.03;;;13.70;99.90;;;;;;5096693;28;20850;-68
2022/10/07 09:03:24;;;;;;;16.60;14.97;;;13.90;99.90;;;;;;5092886;28;20917;-68
2022/10/07 09:05:55;;;;;;;15.80;14.30;;;13.90;99.90;;;;;;5084583;28;20836;-68
2022/10/07 09:08:27;;;;;;;21.50;15.10;;;14.00;99.90;;;;;;5089320;28;20462;-68
2022/10/07 09:10:58;;;;;;;21.67;14.47;;;14.10;99.90;;;;;;5093917;28;20492;-68
2022/10/07 09:13:29;;;;;;;15.30;13.80;;;14.20;99.90;;;;;;5091382;28;20458;-69
2022/10/07 09:15:59;;;;;;;17.40;14.50;;;14.40;99.90;;;;;;5093855;28;20817;-68
2022/10/07 09:18:31;;;;;;;17.77;14.67;;;14.50;99.90;;;;;;5092001;28;20843;-68
2022/10/07 09:21:02;;;;;;;16.50;15.00;;;14.70;99.90;;;;;;5092407;28;20523;-68
2022/10/07 09:23:31;;;;;;;16.80;15.17;;;14.80;99.90;;;;;;5087470;28;20454;-68
2022/10/07 09:25:58;;;;;;;17.90;16.03;;;15.00;99.90;;;;;;5095404;28;20587;-70
2022/10/07 09:28:29;;;;;;;20.47;15.23;;;15.10;99.90;;;;;;5089947;28;20482;-67
2022/10/07 09:30:56;;;;;;;20.43;15.90;;;15.10;99.90;;;;;;5091910;28;20594;-68
2022/10/07 09:33:24;;;;;;;19.07;15.70;;;15.30;99.90;;;;;;5083056;28;20560;-68
2022/10/07 09:35:53;;;;;;;16.77;15.20;;;15.40;99.90;;;;;;5086923;28;20909;-70
2022/10/07 09:38:34;;;;;;;16.57;14.90;;;15.50;99.90;;;;;;5091901;28;20458;-68
2022/10/07 09:41:18;;;;;;;16.73;15.53;;;15.50;99.90;;;;;;5090106;28;20816;-69
2022/10/07 09:43:57;;;;;;;18.70;14.90;;;15.70;99.90;;;;;;5090434;28;20453;-69
2022/10/07 09:46:52;;;;;;;21.20;16.03;;;15.90;99.90;;;;;;5094865;28;20465;-71
2022/10/07 09:49:40;;;;;;;18.37;16.20;;;16.20;99.90;;;;;;5050336;28;20625;-69
2022/10/07 09:52:15;;;;;;;28.43;16.50;;;16.90;99.90;;;;;;5092199;28;20859;-68
2022/10/07 09:54:45;;;;;;;17.20;15.50;;;17.20;99.90;;;;;;5088832;28;20465;-67
2022/10/07 09:57:31;;;;;;;17.60;14.60;;;17.50;99.90;;;;;;5090539;28;20468;-71
2022/10/07 10:00:24;;;;;;;16.70;15.10;;;17.80;99.90;;;;;;5089946;28;20461;-68
2022/10/07 10:02:54;;;;;;;20.73;15.43;;;18.20;99.90;;;;;;5089991;28;20458;-69
2022/10/07 10:05:26;;;;;;;16.47;14.77;;;18.80;99.90;;;;;;5090143;28;20461;-69
2022/10/07 10:07:56;;;;;;;17.10;15.43;;;18.60;99.90;;;;;;5096551;28;20460;-68
2022/10/07 10:10:26;;;;;;;16.57;15.03;;;18.70;99.90;;;;;;5091750;28;20473;-68
2022/10/07 10:12:56;;;;;;;16.50;14.90;;;19.00;99.90;;;;;;5095333;28;20561;-68
2022/10/07 10:15:42;;;;;;;16.07;14.90;;;19.10;99.90;;;;;;5094794;28;20550;-68
2022/10/07 10:18:28;;;;;;;16.33;14.80;;;19.30;99.90;;;;;;5092028;28;21398;-68
2022/10/07 10:20:55;;;;;;;19.73;16.10;;;19.10;99.90;;;;;;5089387;28;20982;-68
2022/10/07 10:23:32;;;;;;;16.70;15.40;;;19.20;99.90;;;;;;5093851;28;20469;-70
2022/10/07 10:26:26;;;;;;;17.97;16.13;;;19.50;99.90;;;;;;5094047;28;20456;-68
2022/10/07 10:29:02;;;;;;;18.83;17.03;;;19.90;99.90;;;;;;5090417;28;20489;-68
2022/10/07 10:31:40;;;;;;;17.17;15.47;;;20.30;99.90;;;;;;5089555;28;20879;-68
2022/10/07 10:34:20;;;;;;;16.53;15.37;;;20.50;99.90;;;;;;5088139;28;20466;-69
2022/10/07 10:36:54;;;;;;;18.03;16.30;;;20.70;99.90;;;;;;5089172;28;20476;-68
2022/10/07 10:39:34;;;;;;;18.27;16.57;;;20.90;99.90;;;;;;5090091;28;21214;-68
2022/10/07 10:42:07;;;;;;;18.03;16.33;;;20.50;99.90;;;;;;5086351;28;20465;-68
2022/10/07 10:44:51;;;;;;;16.77;15.53;;;20.50;99.90;;;;;;5091492;28;20548;-68
2022/10/07 10:47:27;;;;;;;17.30;15.60;;;20.10;99.90;;;;;;5092446;28;20859;-68
2022/10/07 10:50:05;;;;;;;17.97;16.10;;;20.40;99.90;;;;;;5090004;28;20461;-71
2022/10/07 10:52:44;;;;;;;17.53;16.17;;;20.40;99.90;;;;;;5093498;28;20493;-72
2022/10/07 10:55:35;;;;;;;16.97;15.50;;;20.50;99.90;;;;;;5088435;28;20465;-69
2022/10/07 10:58:19;;;;;;;17.60;15.90;;;20.30;99.90;;;;;;5094779;28;20461;-72
2022/10/07 11:00:55;;;;;;;19.03;16.00;;;20.70;99.90;;;;;;5090803;28;20944;-68
2022/10/07 11:03:36;;;;;;;22.17;16.70;;;20.60;99.90;;;;;;5091032;28;20472;-67
2022/10/07 11:06:06;;;;;;;16.80;15.60;;;20.80;99.90;;;;;;5096387;28;20453;-71
2022/10/07 11:08:36;;;;;;;18.27;16.70;;;21.10;99.90;;;;;;5092545;28;20541;-67
2022/10/07 11:11:07;;;;;;;17.43;15.83;;;21.00;99.90;;;;;;5097675;28;20488;-69
2022/10/07 11:13:42;;;;;;;18.17;16.60;;;21.30;99.90;;;;;;5095250;28;20870;-71
2022/10/07 11:16:16;;;;;;;19.03;17.20;;;22.00;99.90;;;;;;5092765;28;20866;-68
2022/10/07 11:18:48;;;;;;;16.90;15.40;;;21.60;99.90;;;;;;5094166;28;21027;-67
2022/10/07 11:21:20;;;;;;;17.20;16.00;;;21.80;99.90;;;;;;5091403;28;20560;-66
2022/10/07 11:23:54;;;;;;;17.57;15.80;;;21.80;99.90;;;;;;5090498;28;20501;-68
2022/10/07 11:26:26;;;;;;;20.37;16.57;;;21.80;99.60;;;;;;5089715;28;20454;-70
2022/10/07 11:28:56;;;;;;;17.90;16.10;;;21.90;99.70;;;;;;5098235;28;21030;-67
2022/10/07 11:31:31;;;;;;;18.40;16.70;;;21.90;99.10;;;;;;5092983;28;20534;-71
2022/10/07 11:34:11;;;;;;;18.10;16.57;;;22.10;98.50;;;;;;5092102;28;20468;-67
2022/10/07 11:36:47;;;;;;;18.73;16.87;;;21.60;99.10;;;;;;5094312;28;20461;-67
2022/10/07 11:39:14;;;;;;;17.80;16.20;;;21.50;97.70;;;;;;5091014;28;20444;-69
2022/10/07 11:41:49;;;;;;;17.47;16.10;;;21.60;98.60;;;;;;5096985;28;20462;-67
2022/10/07 11:44:23;;;;;;;18.43;16.37;;;21.50;98.80;;;;;;5094108;28;20461;-67
2022/10/07 11:46:51;;;;;;;17.10;15.37;;;21.40;98.50;;;;;;5087450;28;20804;-68
2022/10/07 11:49:22;;;;;;;18.33;16.47;;;21.50;98.50;;;;;;5090832;28;20549;-68
2022/10/07 11:51:56;;;;;;;18.07;16.37;;;21.90;96.90;;;;;;5093754;28;21040;-69
2022/10/07 11:54:27;;;;;;;17.93;16.30;;;22.20;97.00;;;;;;5089986;28;20462;-68
2022/10/07 11:56:57;;;;;;;18.63;16.83;;;22.20;96.20;;;;;;5094064;28;20477;-67
2022/10/07 11:59:41;;;;;;;16.87;15.67;;;22.10;95.20;;;;;;5096695;28;21206;-68
2022/10/07 12:02:40;;;;;;;19.30;16.67;;;21.50;95.80;;;;;;5092382;28;20461;-68
2022/10/07 12:05:27;;;;;;;17.43;15.83;;;22.00;96.70;;;;;;5090791;28;20457;-67
2022/10/07 12:08:01;;;;;;;18.60;16.90;;;22.00;95.60;;;;;;5091198;28;20445;-71
2022/10/07 12:10:32;;;;;;;17.03;15.60;;;22.60;96.40;;;;;;5088696;28;20470;-70
2022/10/07 12:13:40;;;;;;;18.20;16.57;;;22.90;94.50;;;;;;5096923;28;20508;-68
2022/10/07 12:16:41;;;;;;;17.70;16.10;;;22.70;94.10;;;;;;5090883;28;20491;-67
2022/10/07 12:19:19;;;;;;;18.17;16.27;;;22.80;94.20;;;;;;5010354;28;20516;-68
2022/10/07 12:22:14;;;;;;;17.43;15.77;;;23.10;94.20;;;;;;5072120;28;21354;-71
2022/10/07 12:25:05;;;;;;;18.27;16.70;;;23.00;93.30;;;;;;5087949;28;20802;-67
2022/10/07 12:27:33;;;;;;;16.70;15.30;;;22.60;94.00;;;;;;5086475;28;20470;-68
2022/10/07 12:30:01;;;;;;;16.70;15.40;;;22.90;93.40;;;;;;5090177;28;20876;-67
2022/10/07 12:32:46;;;;;;;18.43;16.37;;;22.40;92.90;;;;;;5094299;28;21356;-67
2022/10/07 12:35:48;;;;;;;17.50;15.90;;;22.50;93.30;;;;;;5092326;28;20477;-68
2022/10/07 12:38:23;;;;;;;18.53;16.83;;;23.00;92.80;;;;;;5093874;28;20456;-68
2022/10/07 12:41:21;;;;;;;17.27;15.70;;;23.20;91.40;;;;;;5087791;28;20984;-66
2022/10/07 12:43:54;;;;;;;17.50;16.20;;;23.20;92.00;;;;;;5094352;28;20460;-70
2022/10/07 12:46:23;;;;;;;18.27;16.10;;;23.40;92.20;;;;;;5087842;28;20967;-67
2022/10/07 12:48:57;;;;;;;17.30;15.67;;;23.70;92.30;;;;;;5088736;28;20457;-69
2022/10/07 12:51:28;;;;;;;17.17;15.97;;;23.80;90.70;;;;;;5091799;28;20568;-68
2022/10/07 12:53:57;;;;;;;17.10;15.50;;;23.80;89.40;;;;;;5089273;28;20466;-68
2022/10/07 12:56:29;;;;;;;21.57;16.47;;;23.90;90.10;;;;;;5094551;28;20938;-66
2022/10/07 13:02:23;;;;;;;17.40;15.97;;;24.00;88.20;;;;;;5091668;28;21035;-68
2022/10/07 13:05:23;;;;;;;18.53;16.67;;;24.10;86.50;;;;;;5088393;28;20493;-69
2022/10/07 13:08:36;;;;;;;17.80;16.27;;;23.80;85.20;;;;;;5091076;28;20819;-67